Time;durP1;ratioP1;P1;durP2;ratioP2;P2;SDS_P1;SDS_P2;PMS_P1;PMS_P2;Temp;Humidity;BMP_temperature;BMP_pressure;BME280_temperature;BME280_humidity;BME280_pressure;Samples;Min_cycle;Max_cycle;Signal;HPM_P1;HPM_P2
2022/03/11 00:01:03;;;;;;;;;19.67;17.67;;;;;;;;5208755;28;8791;-70
2022/03/11 00:03:35;;;;;;;;;27.67;27.00;;;;;;;;5191601;28;8944;-72
2022/03/11 00:06:06;;;;;;;;;18.33;16.67;;;;;;;;5208738;28;9029;-72
2022/03/11 00:08:37;;;;;;;;;30.67;25.33;;;;;;;;5224976;28;9028;-72
2022/03/11 00:11:10;;;;;;;;;32.33;30.67;;;;;;;;5208154;28;9261;-72
2022/03/11 00:13:42;;;;;;;;;38.33;28.67;;;;;;;;5207218;28;9429;-72
2022/03/11 00:16:13;;;;;;;;;20.00;20.00;;;;;;;;5191321;28;9280;-73
2022/03/11 00:18:45;;;;;;;;;24.00;22.00;;;;;;;;5203175;28;9159;-74
2022/03/11 00:21:17;;;;;;;;;42.33;33.00;;;;;;;;5212489;28;9263;-73
2022/03/11 00:23:48;;;;;;;;;19.00;17.33;;;;;;;;5228786;28;9583;-74
2022/03/11 00:26:20;;;;;;;;;19.33;16.67;;;;;;;;5212233;28;9209;-74
2022/03/11 00:28:51;;;;;;;;;33.00;30.33;;;;;;;;5211745;28;9203;-73
2022/03/11 00:31:22;;;;;;;;;13.67;12.33;;;;;;;;5212657;28;9424;-72
2022/03/11 00:33:54;;;;;;;;;24.33;22.67;;;;;;;;5228578;28;9457;-72
2022/03/11 00:36:26;;;;;;;;;13.67;13.67;;;;;;;;5228541;28;9274;-72
2022/03/11 00:38:58;;;;;;;;;20.67;20.33;;;;;;;;5207253;28;9154;-72
2022/03/11 00:41:29;;;;;;;;;39.25;38.00;;;;;;;;5192118;28;9416;-72
2022/03/11 00:44:00;;;;;;;;;44.75;42.75;;;;;;;;5191642;28;9870;-74
2022/03/11 00:46:32;;;;;;;;;23.33;22.67;;;;;;;;5191107;28;10489;-74
2022/03/11 00:49:04;;;;;;;;;3.00;2.33;;;;;;;;5208513;28;9331;-73
2022/03/11 00:51:35;;;;;;;;;36.50;36.50;;;;;;;;5175800;28;9493;-73
2022/03/11 00:54:07;;;;;;;;;34.25;31.25;;;;;;;;5207151;28;10671;-73
2022/03/11 00:56:57;;;;;;;;;38.75;35.25;;;;;;;;5214773;28;9990;-74
2022/03/11 00:59:28;;;;;;;;;48.50;44.25;;;;;;;;5213178;28;10048;-75
2022/03/11 01:02:00;;;;;;;;;28.50;27.75;;;;;;;;5195835;28;10372;-73
2022/03/11 01:04:32;;;;;;;;;41.00;41.00;;;;;;;;5192309;28;10563;-73
2022/03/11 01:07:22;;;;;;;;;14.67;14.67;;;;;;;;5226094;28;10427;-73
2022/03/11 01:09:54;;;;;;;;;25.75;25.75;;;;;;;;5176226;28;9635;-73
2022/03/11 01:12:51;;;;;;;;;44.75;40.75;;;;;;;;5195059;28;9982;-73
2022/03/11 01:15:23;;;;;;;;;32.25;32.00;;;;;;;;5207818;28;10134;-73
2022/03/11 01:17:55;;;;;;;;;28.00;28.00;;;;;;;;5222618;28;10032;-74
2022/03/11 01:20:27;;;;;;;;;29.33;25.67;;;;;;;;5211980;28;9870;-74
2022/03/11 01:23:16;;;;;;;;;45.25;42.75;;;;;;;;5229121;28;9651;-75
2022/03/11 01:25:48;;;;;;;;;31.00;30.75;;;;;;;;5213058;28;10339;-73
2022/03/11 01:28:19;;;;;;;;;31.50;29.00;;;;;;;;5197914;28;10218;-73
2022/03/11 01:30:51;;;;;;;;;15.25;15.25;;;;;;;;5215761;28;10288;-73
2022/03/11 01:33:23;;;;;;;;;31.00;28.00;;;;;;;;5197477;28;9983;-73
2022/03/11 01:35:54;;;;;;;;;32.25;30.75;;;;;;;;5235510;28;10004;-71
2022/03/11 01:38:26;;;;;;;;;43.75;41.00;;;;;;;;5222329;28;10620;-70
2022/03/11 01:40:57;;;;;;;;;65.75;52.00;;;;;;;;5231280;28;10791;-72
2022/03/11 01:43:29;;;;;;;;;31.00;31.00;;;;;;;;5224142;28;10883;-73
2022/03/11 01:46:01;;;;;;;;;43.00;41.50;;;;;;;;5229146;28;10771;-73
2022/03/11 01:48:32;;;;;;;;;26.25;24.75;;;;;;;;5212952;28;10170;-73
2022/03/11 01:51:03;;;;;;;;;14.33;13.33;;;;;;;;5212718;28;9740;-73
2022/03/11 01:53:35;;;;;;;;;21.33;21.33;;;;;;;;5196763;28;9718;-71
2022/03/11 01:56:06;;;;;;;;;32.33;29.33;;;;;;;;5230071;28;9501;-72
2022/03/11 01:58:38;;;;;;;;;35.75;33.50;;;;;;;;5229731;28;10421;-72
2022/03/11 02:01:28;;;;;;;;;30.50;30.50;;;;;;;;5230450;28;10811;-72
2022/03/11 02:04:00;;;;;;;;;54.50;49.00;;;;;;;;5229801;28;10335;-73
2022/03/11 02:06:32;;;;;;;;;67.25;57.25;;;;;;;;5196566;28;10531;-72
2022/03/11 02:09:03;;;;;;;;;41.00;37.00;;;;;;;;5202171;28;11013;-72
2022/03/11 02:11:36;;;;;;;;;30.50;30.50;;;;;;;;5201869;28;10606;-72
2022/03/11 02:14:08;;;;;;;;;29.25;24.75;;;;;;;;5211403;28;10122;-72
2022/03/11 02:16:40;;;;;;;;;41.00;37.25;;;;;;;;5212278;28;10370;-71
2022/03/11 02:19:12;;;;;;;;;56.25;44.50;;;;;;;;5226165;28;11422;-70
2022/03/11 02:21:43;;;;;;;;;38.50;37.25;;;;;;;;5246976;28;10808;-71
2022/03/11 02:24:17;;;;;;;;;31.25;28.00;;;;;;;;5230321;28;10365;-73
2022/03/11 02:26:48;;;;;;;;;35.50;33.50;;;;;;;;5232230;28;10950;-71
2022/03/11 02:29:19;;;;;;;;;48.00;45.75;;;;;;;;5213289;28;10349;-69
2022/03/11 02:31:52;;;;;;;;;56.50;48.50;;;;;;;;5197352;28;9559;-69
2022/03/11 02:34:23;;;;;;;;;38.00;31.75;;;;;;;;5213112;28;10621;-69
2022/03/11 02:36:54;;;;;;;;;44.75;42.25;;;;;;;;5213198;28;8776;-70
2022/03/11 02:39:25;;;;;;;;;47.75;44.50;;;;;;;;5229271;28;11058;-70
2022/03/11 02:41:58;;;;;;;;;35.50;33.00;;;;;;;;5213946;28;11456;-70
2022/03/11 02:44:31;;;;;;;;;9.00;9.00;;;;;;;;5213231;28;10210;-70
2022/03/11 02:47:04;;;;;;;;;6.25;6.25;;;;;;;;5196409;28;10168;-71
2022/03/11 02:49:34;;;;;;;;;16.25;11.50;;;;;;;;5196791;28;9775;-70
2022/03/11 02:52:06;;;;;;;;;15.33;15.33;;;;;;;;5247514;28;9840;-71
2022/03/11 02:54:37;;;;;;;;;0.50;0.50;;;;;;;;5213306;28;8795;-71
2022/03/11 02:57:08;;;;;;;;;36.75;35.00;;;;;;;;5229210;28;10064;-70
2022/03/11 02:59:38;;;;;;;;;50.25;40.25;;;;;;;;5229790;28;8799;-70
2022/03/11 03:02:12;;;;;;;;;8.00;8.00;;;;;;;;5230035;28;12362;-72
2022/03/11 03:04:43;;;;;;;;;76.50;59.50;;;;;;;;5212653;28;9914;-71
2022/03/11 03:07:15;;;;;;;;;91.00;69.75;;;;;;;;5215154;28;11485;-71
2022/03/11 03:09:46;;;;;;;;;48.00;44.00;;;;;;;;5208315;28;11705;-71
2022/03/11 03:12:17;;;;;;;;;62.50;48.75;;;;;;;;5228190;28;11573;-73
2022/03/11 03:14:48;;;;;;;;;52.25;46.00;;;;;;;;5229544;28;8786;-74
2022/03/11 03:17:22;;;;;;;;;67.75;58.25;;;;;;;;5213472;28;9513;-73
2022/03/11 03:19:53;;;;;;;;;43.75;43.75;;;;;;;;5214102;28;11491;-73
2022/03/11 03:22:24;;;;;;;;;38.75;38.00;;;;;;;;5213378;28;11381;-73
2022/03/11 03:24:55;;;;;;;;;88.75;70.50;;;;;;;;5230650;28;8782;-72
2022/03/11 03:27:26;;;;;;;;;70.25;58.25;;;;;;;;5193933;28;11529;-72
2022/03/11 03:29:57;;;;;;;;;45.75;43.00;;;;;;;;5192912;28;11513;-71
2022/03/11 03:32:28;;;;;;;;;51.50;48.50;;;;;;;;5206666;28;11009;-71
2022/03/11 03:34:59;;;;;;;;;53.50;46.50;;;;;;;;5248312;28;12058;-73
2022/03/11 03:37:30;;;;;;;;;57.00;48.25;;;;;;;;5230831;28;8835;-73
2022/03/11 03:40:01;;;;;;;;;53.50;47.00;;;;;;;;5214303;28;11494;-72
2022/03/11 03:42:35;;;;;;;;;40.00;37.50;;;;;;;;5231210;28;11254;-72
2022/03/11 03:45:24;;;;;;;;;28.25;25.25;;;;;;;;5219829;28;10757;-71
2022/03/11 03:47:55;;;;;;;;;24.50;24.50;;;;;;;;5255029;28;10050;-72
2022/03/11 03:50:27;;;;;;;;;41.50;39.50;;;;;;;;5237730;28;10738;-73
2022/03/11 03:52:59;;;;;;;;;21.33;21.33;;;;;;;;5217492;28;10315;-72
2022/03/11 03:55:30;;;;;;;;;12.67;12.00;;;;;;;;5210895;28;9633;-73
2022/03/11 03:58:20;;;;;;;;;7.00;7.00;;;;;;;;5242357;28;9530;-68
2022/03/11 04:00:52;;;;;;;;;4.00;4.00;;;;;;;;5223925;28;9214;-73
2022/03/11 04:03:24;;;;;;;;;9.67;9.00;;;;;;;;5223300;28;9181;-72
2022/03/11 04:05:57;;;;;;;;;13.67;12.67;;;;;;;;5220324;28;8801;-71
2022/03/11 04:08:30;;;;;;;;;7.33;7.33;;;;;;;;5236292;28;9539;-72
2022/03/11 04:11:01;;;;;;;;;9.00;7.00;;;;;;;;5218391;28;9388;-72
2022/03/11 04:13:32;;;;;;;;;10.00;7.67;;;;;;;;5216621;28;10192;-72
2022/03/11 04:16:03;;;;;;;;;6.00;6.00;;;;;;;;5216680;28;9348;-73
2022/03/11 04:18:35;;;;;;;;;12.00;12.00;;;;;;;;5201460;28;11444;-74
2022/03/11 04:21:06;;;;;;;;;12.67;10.67;;;;;;;;5216545;28;10003;-73
2022/03/11 04:23:37;;;;;;;;;6.00;6.00;;;;;;;;5215441;28;9341;-73
2022/03/11 04:26:26;;;;;;;;;3.00;3.00;;;;;;;;5249892;28;8765;-74
2022/03/11 04:28:57;;;;;;;;;8.33;8.33;;;;;;;;5232092;28;9177;-73
2022/03/11 04:31:29;;;;;;;;;6.00;4.00;;;;;;;;5214839;28;9209;-73
2022/03/11 04:34:02;;;;;;;;;10.67;10.67;;;;;;;;5215596;28;9014;-73
2022/03/11 04:36:33;;;;;;;;;12.00;12.00;;;;;;;;5231992;28;9369;-73
2022/03/11 04:39:26;;;;;;;;;9.33;9.33;;;;;;;;5218700;28;9252;-72
2022/03/11 04:41:57;;;;;;;;;27.33;24.67;;;;;;;;5213481;28;10028;-71
2022/03/11 04:44:29;;;;;;;;;24.75;23.50;;;;;;;;5213250;28;9690;-67
2022/03/11 04:46:59;;;;;;;;;20.33;20.33;;;;;;;;5212726;28;9911;-71
2022/03/11 04:49:31;;;;;;;;;22.67;18.00;;;;;;;;5212423;28;11671;-72
2022/03/11 04:52:04;;;;;;;;;15.00;15.00;;;;;;;;5229039;28;11478;-72
2022/03/11 04:54:36;;;;;;;;;7.33;7.33;;;;;;;;5228812;28;9198;-71
2022/03/11 04:57:07;;;;;;;;;6.00;6.00;;;;;;;;5228092;28;8867;-72
2022/03/11 04:59:38;;;;;;;;;9.00;9.00;;;;;;;;5211513;28;8909;-73
2022/03/11 05:02:09;;;;;;;;;94.25;73.00;;;;;;;;5228018;28;8887;-71
2022/03/11 05:04:41;;;;;;;;;28.00;28.00;;;;;;;;5229279;28;11579;-72
2022/03/11 05:07:12;;;;;;;;;16.00;15.00;;;;;;;;5198736;28;9841;-73
2022/03/11 05:09:44;;;;;;;;;13.00;13.00;;;;;;;;5215673;28;9044;-74
2022/03/11 05:12:14;;;;;;;;;19.00;18.67;;;;;;;;5215315;28;8956;-73
2022/03/11 05:14:49;;;;;;;;;27.00;24.67;;;;;;;;5231941;28;8793;-73
2022/03/11 05:17:20;;;;;;;;;11.33;10.67;;;;;;;;5231678;28;11505;-73
2022/03/11 05:19:51;;;;;;;;;28.33;27.33;;;;;;;;5214589;28;9965;-74
2022/03/11 05:22:23;;;;;;;;;26.67;26.33;;;;;;;;5232036;28;9083;-74
2022/03/11 05:24:55;;;;;;;;;39.33;31.00;;;;;;;;5214717;28;9408;-72
2022/03/11 05:27:26;;;;;;;;;50.67;45.00;;;;;;;;5214737;28;9675;-72
2022/03/11 05:29:57;;;;;;;;;68.50;52.25;;;;;;;;5214613;28;9875;-75
2022/03/11 05:32:29;;;;;;;;;83.75;62.75;;;;;;;;5230993;28;10221;-74
2022/03/11 05:35:00;;;;;;;;;87.25;63.00;;;;;;;;5214819;28;10717;-74
2022/03/11 05:37:31;;;;;;;;;54.25;44.75;;;;;;;;5214876;28;10754;-73
2022/03/11 05:40:03;;;;;;;;;108.50;81.25;;;;;;;;5214208;28;10178;-73
2022/03/11 05:42:34;;;;;;;;;116.00;90.75;;;;;;;;5214241;28;11546;-73
2022/03/11 05:45:07;;;;;;;;;100.00;78.25;;;;;;;;5214111;28;12344;-72
2022/03/11 05:47:39;;;;;;;;;116.00;85.25;;;;;;;;5230809;28;11517;-72
2022/03/11 05:50:10;;;;;;;;;128.00;102.75;;;;;;;;5214324;28;11553;-73
2022/03/11 05:52:42;;;;;;;;;108.50;88.00;;;;;;;;5247562;28;11572;-73
2022/03/11 05:55:13;;;;;;;;;96.75;77.50;;;;;;;;5230324;28;12354;-72
2022/03/11 05:57:44;;;;;;;;;109.00;82.50;;;;;;;;5230474;28;12250;-72
2022/03/11 06:00:15;;;;;;;;;116.00;89.75;;;;;;;;5213664;28;11541;-72
2022/03/11 06:02:47;;;;;;;;;97.25;74.00;;;;;;;;5248689;28;9471;-72
2022/03/11 06:05:18;;;;;;;;;102.00;79.50;;;;;;;;5213485;28;11602;-72
2022/03/11 06:07:49;;;;;;;;;99.00;75.50;;;;;;;;5248389;28;8769;-71
2022/03/11 06:10:19;;;;;;;;;110.75;87.25;;;;;;;;5213961;28;8776;-71
2022/03/11 06:12:50;;;;;;;;;107.00;84.75;;;;;;;;5248195;28;8768;-72
2022/03/11 06:15:21;;;;;;;;;118.25;102.50;;;;;;;;5229002;28;8915;-72
2022/03/11 06:17:54;;;;;;;;;107.75;86.25;;;;;;;;5230312;28;8827;-72
2022/03/11 06:20:28;;;;;;;;;108.25;82.00;;;;;;;;5213418;28;9531;-72
2022/03/11 06:23:00;;;;;;;;;101.00;78.50;;;;;;;;5213550;28;11620;-72
2022/03/11 06:25:31;;;;;;;;;102.50;83.25;;;;;;;;5246821;28;11685;-73
2022/03/11 06:28:03;;;;;;;;;91.25;71.75;;;;;;;;5230384;28;11487;-72
2022/03/11 06:30:34;;;;;;;;;107.75;79.25;;;;;;;;5247735;28;11526;-72
2022/03/11 06:33:06;;;;;;;;;108.50;79.00;;;;;;;;5196934;28;11505;-72
2022/03/11 06:35:37;;;;;;;;;97.50;74.75;;;;;;;;5248189;28;11560;-72
2022/03/11 06:38:08;;;;;;;;;114.00;83.25;;;;;;;;5229598;28;11242;-72
2022/03/11 06:40:39;;;;;;;;;104.00;78.00;;;;;;;;5213097;28;11603;-72
2022/03/11 06:43:11;;;;;;;;;112.00;86.50;;;;;;;;5212797;28;8825;-72
2022/03/11 06:45:42;;;;;;;;;100.75;79.00;;;;;;;;5229800;28;8792;-71
2022/03/11 06:48:13;;;;;;;;;103.00;76.50;;;;;;;;5229782;28;12402;-71
2022/03/11 06:50:44;;;;;;;;;87.00;66.00;;;;;;;;5212929;28;11610;-71
2022/03/11 06:53:18;;;;;;;;;73.25;61.75;;;;;;;;5213149;28;8784;-72
2022/03/11 06:55:49;;;;;;;;;70.75;58.25;;;;;;;;5229834;28;9995;-72
2022/03/11 06:58:20;;;;;;;;;81.00;64.67;;;;;;;;5245457;28;9879;-71
2022/03/11 07:00:51;;;;;;;;;75.33;62.00;;;;;;;;5196538;28;8857;-71
2022/03/11 07:03:22;;;;;;;;;80.25;66.75;;;;;;;;5229056;28;9515;-72
2022/03/11 07:05:53;;;;;;;;;82.33;61.00;;;;;;;;5212842;28;10751;-72
2022/03/11 07:08:24;;;;;;;;;88.25;69.00;;;;;;;;5212804;28;9446;-73
2022/03/11 07:11:13;;;;;;;;;76.67;61.67;;;;;;;;5215342;28;8797;-73
2022/03/11 07:13:45;;;;;;;;;79.00;63.67;;;;;;;;5212544;28;9659;-71
2022/03/11 07:16:16;;;;;;;;;78.67;63.00;;;;;;;;5212747;28;9565;-66
2022/03/11 07:18:48;;;;;;;;;74.33;56.33;;;;;;;;5228980;28;10392;-69
2022/03/11 07:21:19;;;;;;;;;72.33;58.00;;;;;;;;5245679;28;9114;-69
2022/03/11 07:23:54;;;;;;;;;57.33;51.67;;;;;;;;5212398;28;9688;-69
2022/03/11 07:26:25;;;;;;;;;58.00;51.50;;;;;;;;5212021;28;11509;-70
2022/03/11 07:28:56;;;;;;;;;60.33;53.33;;;;;;;;5212456;28;8825;-69
2022/03/11 07:31:28;;;;;;;;;77.50;62.00;;;;;;;;5228675;28;8954;-70
2022/03/11 07:34:00;;;;;;;;;42.25;38.25;;;;;;;;5212454;28;8780;-70
2022/03/11 07:36:34;;;;;;;;;60.25;52.25;;;;;;;;5228880;28;8761;-70
2022/03/11 07:39:06;;;;;;;;;63.50;54.50;;;;;;;;5211978;28;8804;-70
2022/03/11 07:41:37;;;;;;;;;45.50;36.00;;;;;;;;5211660;28;8842;-70
2022/03/11 07:44:08;;;;;;;;;36.75;33.00;;;;;;;;5211979;28;8779;-70
2022/03/11 07:46:39;;;;;;;;;24.20;24.20;;;;;;;;5212180;28;8773;-69
2022/03/11 07:49:11;;;;;;;;;33.20;31.40;;;;;;;;5228533;28;8792;-69
2022/03/11 07:51:42;;;;;;;;;30.60;30.00;;;;;;;;5228585;28;8785;-70
2022/03/11 07:54:13;;;;;;;;;28.20;28.00;;;;;;;;5228354;28;8804;-70
2022/03/11 07:56:44;;;;;;;;;57.33;48.33;;;;;;;;5212208;28;8783;-69
2022/03/11 07:59:15;;;;;;;;;66.67;54.33;;;;;;;;5228423;28;9227;-70
2022/03/11 08:01:46;;;;;;;;;66.00;53.67;;;;;;;;5228614;28;8795;-70
2022/03/11 08:04:18;;;;;;;;;65.75;54.00;;;;;;;;5228348;28;8785;-70
2022/03/11 08:06:49;;;;;;;;;49.25;45.25;;;;;;;;5212706;28;9476;-70
2022/03/11 08:09:19;;;;;;;;;46.33;40.67;;;;;;;;5246549;28;8757;-70
2022/03/11 08:11:50;;;;;;;;;32.00;30.67;;;;;;;;5228423;28;8753;-70
2022/03/11 08:14:21;;;;;;;;;48.33;42.00;;;;;;;;5211883;28;8773;-70
2022/03/11 08:16:53;;;;;;;;;53.50;48.00;;;;;;;;5228429;28;8764;-70
2022/03/11 08:19:24;;;;;;;;;49.33;46.67;;;;;;;;5211871;28;8831;-70
2022/03/11 08:21:56;;;;;;;;;51.67;46.00;;;;;;;;5246030;28;8773;-71
2022/03/11 08:24:27;;;;;;;;;38.00;38.00;;;;;;;;5228230;28;8854;-70
2022/03/11 08:26:58;;;;;;;;;48.67;46.33;;;;;;;;5195273;28;8777;-70
2022/03/11 08:29:33;;;;;;;;;53.67;48.33;;;;;;;;5211505;28;8892;-70
2022/03/11 08:32:04;;;;;;;;;44.50;41.50;;;;;;;;5227998;28;11488;-70
2022/03/11 08:34:35;;;;;;;;;45.80;43.20;;;;;;;;5195208;28;8789;-70
2022/03/11 08:37:06;;;;;;;;;45.67;44.33;;;;;;;;5211511;28;8813;-70
2022/03/11 08:39:37;;;;;;;;;43.75;40.50;;;;;;;;5198261;28;10638;-70
2022/03/11 08:42:08;;;;;;;;;38.50;34.00;;;;;;;;5215882;28;8919;-70
2022/03/11 08:44:39;;;;;;;;;16.00;15.40;;;;;;;;5215754;28;8818;-70
2022/03/11 08:47:10;;;;;;;;;11.25;11.25;;;;;;;;5215601;28;8805;-70
2022/03/11 08:49:41;;;;;;;;;18.20;18.20;;;;;;;;5232269;28;8842;-70
2022/03/11 08:52:12;;;;;;;;;12.50;12.50;;;;;;;;5231910;28;8784;-69
2022/03/11 08:54:43;;;;;;;;;16.00;13.50;;;;;;;;5249740;28;11477;-69
2022/03/11 08:57:13;;;;;;;;;2.50;2.50;;;;;;;;5215350;28;8824;-70
2022/03/11 08:59:45;;;;;;;;;11.75;11.75;;;;;;;;5227655;28;9825;-70
2022/03/11 09:02:16;;;;;;;;;8.60;8.60;;;;;;;;5211395;28;9503;-70
2022/03/11 09:04:48;;;;;;;;;20.20;20.20;;;;;;;;5227380;28;8797;-70
2022/03/11 09:07:38;;;;;;;;;9.40;9.40;;;;;;;;5242114;28;8782;-70
2022/03/11 09:10:09;;;;;;;;;7.40;7.40;;;;;;;;5194947;28;8793;-70
2022/03/11 09:12:41;;;;;;;;;6.00;6.00;;;;;;;;5227817;28;8782;-69
2022/03/11 09:15:12;;;;;;;;;6.80;6.40;;;;;;;;5211108;28;8870;-70
2022/03/11 09:18:01;;;;;;;;;5.60;5.60;;;;;;;;5227546;28;8829;-69
2022/03/11 09:20:32;;;;;;;;;8.25;8.25;;;;;;;;5244157;28;8800;-69
2022/03/11 09:23:03;;;;;;;;;6.60;6.00;;;;;;;;5228725;28;8802;-70
2022/03/11 09:25:34;;;;;;;;;15.80;15.80;;;;;;;;5227474;28;8883;-71
2022/03/11 09:28:24;;;;;;;;;11.40;11.20;;;;;;;;5228491;28;8822;-69
2022/03/11 09:30:54;;;;;;;;;8.40;8.20;;;;;;;;5210804;28;9643;-70
2022/03/11 09:33:25;;;;;;;;;12.50;12.50;;;;;;;;5227121;28;8971;-69
2022/03/11 09:35:56;;;;;;;;;11.50;9.75;;;;;;;;5210612;28;8793;-69
2022/03/11 09:38:27;;;;;;;;;9.75;9.75;;;;;;;;5228448;28;12376;-70
2022/03/11 09:41:00;;;;;;;;;16.00;15.50;;;;;;;;5243788;28;8835;-70
2022/03/11 09:43:32;;;;;;;;;9.00;9.00;;;;;;;;5210413;28;8785;-70
2022/03/11 09:46:03;;;;;;;;;12.00;12.00;;;;;;;;5210245;28;8800;-69
2022/03/11 09:48:34;;;;;;;;;3.60;3.60;;;;;;;;5210813;28;9642;-70
2022/03/11 09:51:05;;;;;;;;;10.40;10.40;;;;;;;;5243229;28;8793;-72
2022/03/11 09:53:36;;;;;;;;;9.50;9.50;;;;;;;;5210285;28;8782;-71
2022/03/11 09:56:07;;;;;;;;;6.40;6.40;;;;;;;;5210277;28;8859;-70
2022/03/11 09:58:38;;;;;;;;;12.00;12.00;;;;;;;;5226472;28;8817;-70
2022/03/11 10:01:27;;;;;;;;;9.00;9.00;;;;;;;;5226912;28;8789;-70
2022/03/11 10:04:16;;;;;;;;;6.20;6.20;;;;;;;;5255407;28;8766;-70
2022/03/11 10:06:48;;;;;;;;;6.50;6.00;;;;;;;;5226729;28;8793;-71
2022/03/11 10:09:19;;;;;;;;;9.40;7.80;;;;;;;;5209972;28;8813;-70
2022/03/11 10:11:52;;;;;;;;;6.00;6.00;;;;;;;;5226817;28;8769;-70
2022/03/11 10:14:42;;;;;;;;;9.80;9.80;;;;;;;;5227906;28;8904;-70
2022/03/11 10:17:19;;;;;;;;;9.40;9.40;;;;;;;;5243013;28;8949;-71
2022/03/11 10:20:02;;;;;;;;;8.20;7.40;;;;;;;;5259623;28;8788;-71
2022/03/11 10:22:34;;;;;;;;;7.00;7.00;;;;;;;;5226670;28;8800;-71
2022/03/11 10:25:25;;;;;;;;;11.60;10.40;;;;;;;;5209779;28;8853;-70
2022/03/11 10:28:03;;;;;;;;;49.20;46.60;;;;;;;;5225914;28;8871;-70
2022/03/11 10:30:36;;;;;;;;;15.40;13.00;;;;;;;;5226270;28;8818;-71
2022/03/11 10:33:08;;;;;;;;;9.20;8.60;;;;;;;;5225705;28;8786;-71
2022/03/11 10:35:40;;;;;;;;;14.00;13.00;;;;;;;;5259334;28;8794;-70
2022/03/11 10:38:21;;;;;;;;;3.40;3.40;;;;;;;;5225749;28;8806;-70
2022/03/11 10:40:56;;;;;;;;;4.40;4.00;;;;;;;;5209618;28;8777;-70
2022/03/11 10:43:28;;;;;;;;;12.00;12.00;;;;;;;;5209452;28;8900;-70
2022/03/11 10:46:02;;;;;;;;;16.80;16.40;;;;;;;;5242576;28;8790;-70
2022/03/11 10:48:51;;;;;;;;;9.00;8.20;;;;;;;;5225720;28;8782;-70
2022/03/11 10:51:27;;;;;;;;;24.20;24.20;;;;;;;;5225496;28;8790;-70
2022/03/11 10:54:02;;;;;;;;;16.60;16.60;;;;;;;;5225681;28;8790;-70
2022/03/11 10:56:40;;;;;;;;;26.80;26.80;;;;;;;;5209203;28;8789;-69
2022/03/11 10:59:22;;;;;;;;;19.00;18.00;;;;;;;;5208639;28;8826;-70
2022/03/11 11:01:59;;;;;;;;;15.80;15.80;;;;;;;;5241478;28;8855;-70
2022/03/11 11:04:30;;;;;;;;;11.60;11.60;;;;;;;;5225222;28;9503;-69
2022/03/11 11:07:04;;;;;;;;;4.80;4.80;;;;;;;;5208600;28;8778;-69
2022/03/11 11:09:57;;;;;;;;;12.00;11.20;;;;;;;;5239887;28;8781;-69
2022/03/11 11:12:28;;;;;;;;;11.20;11.20;;;;;;;;5225079;28;8778;-69
2022/03/11 11:14:59;;;;;;;;;14.75;13.25;;;;;;;;5225086;28;8790;-71
2022/03/11 11:17:30;;;;;;;;;19.20;18.80;;;;;;;;5208599;28;8805;-71
2022/03/11 11:20:04;;;;;;;;;2.20;2.20;;;;;;;;5241588;28;8786;-71
2022/03/11 11:22:35;;;;;;;;;12.20;12.20;;;;;;;;5225557;28;8808;-70
2022/03/11 11:25:07;;;;;;;;;9.00;9.00;;;;;;;;5208830;28;8804;-70
2022/03/11 11:27:38;;;;;;;;;9.40;9.40;;;;;;;;5225157;28;9508;-70
2022/03/11 11:30:09;;;;;;;;;9.40;9.40;;;;;;;;5224897;28;9536;-69
2022/03/11 11:32:41;;;;;;;;;10.40;10.40;;;;;;;;5224888;28;8782;-70
2022/03/11 11:35:26;;;;;;;;;5.80;5.20;;;;;;;;5208136;28;8801;-70
2022/03/11 11:37:58;;;;;;;;;7.00;7.00;;;;;;;;5208318;28;8806;-71
2022/03/11 11:40:33;;;;;;;;;8.60;8.60;;;;;;;;5208642;28;9501;-70
2022/03/11 11:43:14;;;;;;;;;6.00;6.00;;;;;;;;5258194;28;8798;-70
2022/03/11 11:45:48;;;;;;;;;10.60;10.60;;;;;;;;5208303;28;8777;-70
2022/03/11 11:48:42;;;;;;;;;10.00;10.00;;;;;;;;5253566;28;8826;-70
2022/03/11 11:51:32;;;;;;;;;20.20;18.40;;;;;;;;5210317;28;9492;-70
2022/03/11 11:54:32;;;;;;;;;12.80;12.80;;;;;;;;5223253;28;8809;-71
2022/03/11 11:57:03;;;;;;;;;10.40;10.40;;;;;;;;5223909;28;8839;-71
2022/03/11 11:59:38;;;;;;;;;8.20;8.20;;;;;;;;5223948;28;8846;-69
2022/03/11 12:02:22;;;;;;;;;14.20;14.20;;;;;;;;5224360;28;9525;-70
2022/03/11 12:04:53;;;;;;;;;16.00;16.00;;;;;;;;5224454;28;8801;-69
2022/03/11 12:07:44;;;;;;;;;21.40;21.40;;;;;;;;5207841;28;8817;-68
2022/03/11 12:10:22;;;;;;;;;15.40;15.40;;;;;;;;5224249;28;8812;-69
2022/03/11 12:12:54;;;;;;;;;6.60;6.00;;;;;;;;5224347;28;8781;-70
2022/03/11 12:15:25;;;;;;;;;30.40;28.80;;;;;;;;5224192;28;9593;-69
2022/03/11 12:18:00;;;;;;;;;31.80;28.80;;;;;;;;5223535;28;8817;-70
2022/03/11 12:20:31;;;;;;;;;34.60;33.00;;;;;;;;5207442;28;8778;-70
2022/03/11 12:23:04;;;;;;;;;11.00;11.00;;;;;;;;5207747;28;8782;-70
2022/03/11 12:25:45;;;;;;;;;11.00;9.60;;;;;;;;5223741;28;8801;-70
2022/03/11 12:28:17;;;;;;;;;24.20;21.20;;;;;;;;5224991;28;8872;-71
2022/03/11 12:30:48;;;;;;;;;15.20;14.60;;;;;;;;5207332;28;9505;-70
2022/03/11 12:33:33;;;;;;;;;11.00;11.00;;;;;;;;5223803;28;8841;-68
2022/03/11 12:36:08;;;;;;;;;22.20;21.60;;;;;;;;5223893;28;12327;-69
2022/03/11 12:38:40;;;;;;;;;16.40;14.40;;;;;;;;5207309;28;8936;-69
2022/03/11 12:41:15;;;;;;;;;26.40;26.20;;;;;;;;5207231;28;8786;-69
2022/03/11 12:43:46;;;;;;;;;13.80;13.80;;;;;;;;5224332;28;8805;-69
2022/03/11 12:46:17;;;;;;;;;13.40;13.40;;;;;;;;5223718;28;8789;-70
2022/03/11 12:48:48;;;;;;;;;19.60;19.60;;;;;;;;5240640;28;8932;-69
2022/03/11 12:51:21;;;;;;;;;31.00;30.80;;;;;;;;5207162;28;8896;-70
2022/03/11 12:53:52;;;;;;;;;35.60;32.00;;;;;;;;5206946;28;8804;-70
2022/03/11 12:56:24;;;;;;;;;19.20;17.80;;;;;;;;5223957;28;8778;-70
2022/03/11 12:58:54;;;;;;;;;21.00;20.20;;;;;;;;5223109;28;8845;-70
2022/03/11 13:01:27;;;;;;;;;17.75;17.75;;;;;;;;5240324;28;9519;-70
2022/03/11 13:03:58;;;;;;;;;20.00;20.00;;;;;;;;5223158;28;8928;-70
2022/03/11 13:06:30;;;;;;;;;27.60;27.20;;;;;;;;5202896;28;8808;-70
2022/03/11 13:09:21;;;;;;;;;21.00;19.80;;;;;;;;5252351;28;8769;-70
2022/03/11 13:12:24;;;;;;;;;17.60;15.20;;;;;;;;5223883;28;8820;-70
2022/03/11 13:15:11;;;;;;;;;17.20;17.20;;;;;;;;5257389;28;9563;-70
2022/03/11 13:17:46;;;;;;;;;30.00;28.00;;;;;;;;5223416;28;8952;-70
2022/03/11 13:20:29;;;;;;;;;25.80;25.00;;;;;;;;5223440;28;8790;-71
2022/03/11 13:23:07;;;;;;;;;33.00;31.80;;;;;;;;5222889;28;8814;-70
2022/03/11 13:25:39;;;;;;;;;22.80;22.00;;;;;;;;5209456;28;9504;-71
2022/03/11 13:28:11;;;;;;;;;30.00;29.40;;;;;;;;5226143;28;8824;-72
2022/03/11 13:30:42;;;;;;;;;23.20;21.20;;;;;;;;5226954;28;8781;-71
2022/03/11 13:33:18;;;;;;;;;31.80;28.00;;;;;;;;5210168;28;8806;-70
2022/03/11 13:35:50;;;;;;;;;33.00;32.60;;;;;;;;5210026;28;8928;-72
2022/03/11 13:38:39;;;;;;;;;40.40;37.00;;;;;;;;5226794;28;9678;-71
2022/03/11 13:41:12;;;;;;;;;32.40;31.00;;;;;;;;5209486;28;8809;-73
2022/03/11 13:43:43;;;;;;;;;25.40;23.80;;;;;;;;5226632;28;8770;-73
2022/03/11 13:46:24;;;;;;;;;28.25;26.00;;;;;;;;5210162;28;8864;-72
2022/03/11 13:49:13;;;;;;;;;20.20;18.00;;;;;;;;5209816;28;11523;-73
2022/03/11 13:51:48;;;;;;;;;26.60;21.20;;;;;;;;5242476;28;8920;-72
2022/03/11 13:54:45;;;;;;;;;41.60;36.20;;;;;;;;5210011;28;8801;-71
2022/03/11 13:57:19;;;;;;;;;46.80;41.00;;;;;;;;5223335;28;8789;-73
2022/03/11 14:00:10;;;;;;;;;39.40;35.20;;;;;;;;5209572;28;8832;-71
2022/03/11 14:02:47;;;;;;;;;22.40;22.40;;;;;;;;5228463;28;9559;-72
2022/03/11 14:05:26;;;;;;;;;28.50;28.50;;;;;;;;5226550;28;8789;-72
2022/03/11 14:08:23;;;;;;;;;24.60;24.60;;;;;;;;5226037;28;8836;-72
2022/03/11 14:11:01;;;;;;;;;28.00;28.00;;;;;;;;5242663;28;8789;-72
2022/03/11 14:13:51;;;;;;;;;58.00;45.25;;;;;;;;5226476;28;8793;-72
2022/03/11 14:16:26;;;;;;;;;68.67;57.67;;;;;;;;5242632;28;8878;-72
2022/03/11 14:18:57;;;;;;;;;55.25;49.25;;;;;;;;5225939;28;8829;-73
2022/03/11 14:21:29;;;;;;;;;46.00;43.67;;;;;;;;5242738;28;8793;-68
2022/03/11 14:24:00;;;;;;;;;72.00;58.25;;;;;;;;5259619;28;8912;-72
2022/03/11 14:26:31;;;;;;;;;72.33;60.00;;;;;;;;5226123;28;8912;-70
2022/03/11 14:29:02;;;;;;;;;71.25;58.00;;;;;;;;5242559;28;8875;-70
2022/03/11 14:31:33;;;;;;;;;83.75;66.50;;;;;;;;5226796;28;8793;-70
2022/03/11 14:34:04;;;;;;;;;50.00;48.33;;;;;;;;5209715;28;8915;-70
2022/03/11 14:36:35;;;;;;;;;44.00;38.50;;;;;;;;5225483;28;8810;-72
2022/03/11 14:39:06;;;;;;;;;72.25;57.75;;;;;;;;5225596;28;8801;-71
2022/03/11 14:41:38;;;;;;;;;69.33;54.67;;;;;;;;5208666;28;8864;-72
2022/03/11 14:44:09;;;;;;;;;76.50;60.50;;;;;;;;5208706;28;8786;-70
2022/03/11 14:46:40;;;;;;;;;69.00;53.33;;;;;;;;5209052;28;8815;-71
2022/03/11 14:49:11;;;;;;;;;56.25;51.00;;;;;;;;5225933;28;8786;-71
2022/03/11 14:51:42;;;;;;;;;75.33;58.67;;;;;;;;5225598;28;9517;-69
2022/03/11 14:54:13;;;;;;;;;90.33;67.00;;;;;;;;5258383;28;8913;-69
2022/03/11 14:56:44;;;;;;;;;80.50;63.25;;;;;;;;5224905;28;8856;-71
2022/03/11 14:59:15;;;;;;;;;115.50;78.75;;;;;;;;5224926;28;8861;-71
2022/03/11 15:01:46;;;;;;;;;91.67;67.67;;;;;;;;5225031;28;8794;-70
2022/03/11 15:04:16;;;;;;;;;61.00;49.00;;;;;;;;5259227;28;8774;-70
2022/03/11 15:06:47;;;;;;;;;70.67;56.33;;;;;;;;5224836;28;8851;-70
2022/03/11 15:09:22;;;;;;;;;68.25;56.50;;;;;;;;5224807;28;8817;-70